createdAt,value
2019-01-27T00:00:22.373Z,16.77
2019-01-27T00:03:29.724Z,17.87
2019-01-27T00:06:36.843Z,17.40
2019-01-27T00:09:42.665Z,17.40
2019-01-27T00:12:48.718Z,17.63
2019-01-27T00:15:54.477Z,16.77
2019-01-27T00:19:00.320Z,18.13
2019-01-27T00:22:06.677Z,19.57
2019-01-27T00:25:12.528Z,14.57
2019-01-27T00:28:18.395Z,18.10
2019-01-27T00:31:24.148Z,18.40
2019-01-27T00:34:29.905Z,18.13
2019-01-27T00:37:35.661Z,19.37
2019-01-27T00:40:42.614Z,19.47
2019-01-27T00:43:48.370Z,19.73
2019-01-27T00:46:54.132Z,18.87
2019-01-27T00:50:00.010Z,19.60
2019-01-27T00:53:06.156Z,19.47
2019-01-27T00:56:12.016Z,19.70
2019-01-27T00:59:17.768Z,18.93
2019-01-27T01:02:23.576Z,13.90
2019-01-27T01:05:29.522Z,19.80
2019-01-27T01:08:35.276Z,20.50
2019-01-27T01:11:42.249Z,19.17
2019-01-27T01:14:48.036Z,19.87
2019-01-27T01:17:53.800Z,18.57
2019-01-27T01:20:59.655Z,21.33
2019-01-27T01:24:06.230Z,21.20
2019-01-27T01:27:12.106Z,20.23
2019-01-27T01:30:20.606Z,21.03
2019-01-27T01:33:26.485Z,21.40
2019-01-27T01:36:32.237Z,21.77
2019-01-27T01:39:38.077Z,20.63
2019-01-27T01:42:43.931Z,21.53
2019-01-27T01:45:49.682Z,21.07
2019-01-27T01:48:55.429Z,19.87
2019-01-27T01:52:01.182Z,19.80
2019-01-27T01:55:07.045Z,20.10
2019-01-27T01:58:12.896Z,17.80
2019-01-27T02:01:19.152Z,19.60
2019-01-27T02:04:24.907Z,19.47
2019-01-27T02:07:30.659Z,16.73
2019-01-27T02:10:37.498Z,19.67
2019-01-27T02:13:43.245Z,19.93
2019-01-27T02:16:49.083Z,18.80
2019-01-27T02:19:55.054Z,18.87
2019-01-27T02:23:00.808Z,19.10
2019-01-27T02:26:08.538Z,19.97
2019-01-27T02:29:14.380Z,17.47
2019-01-27T02:32:20.220Z,18.60
2019-01-27T02:35:26.194Z,19.67
2019-01-27T02:38:32.225Z,18.77
2019-01-27T02:41:38.103Z,17.83
2019-01-27T02:44:44.047Z,18.53
2019-01-27T02:47:49.904Z,19.57
2019-01-27T02:50:55.855Z,19.90
2019-01-27T02:54:01.699Z,18.93
2019-01-27T02:57:07.730Z,19.07
2019-01-27T03:00:14.200Z,19.03
2019-01-27T03:03:20.143Z,17.70
2019-01-27T03:06:33.260Z,18.70
2019-01-27T03:09:44.160Z,18.97
2019-01-27T03:12:50.020Z,18.07
2019-01-27T03:15:56.123Z,18.93
2019-01-27T03:19:01.945Z,17.67
2019-01-27T03:22:08.407Z,16.23
2019-01-27T03:25:14.478Z,17.20
2019-01-27T03:28:20.309Z,17.87
2019-01-27T03:31:26.156Z,16.80
2019-01-27T03:34:32.119Z,17.80
2019-01-27T03:37:38.160Z,17.97
2019-01-27T03:40:44.079Z,18.60
2019-01-27T03:43:49.990Z,17.93
2019-01-27T03:46:55.970Z,17.07
2019-01-27T03:50:01.924Z,17.87
2019-01-27T03:53:07.953Z,14.83
2019-01-27T03:56:13.929Z,18.20
2019-01-27T03:59:19.802Z,16.00
2019-01-27T04:02:25.658Z,15.63
2019-01-27T04:05:31.620Z,16.27
2019-01-27T04:08:37.469Z,15.53
2019-01-27T04:11:43.402Z,14.87
2019-01-27T04:14:49.252Z,15.40
2019-01-27T04:17:55.305Z,13.37
2019-01-27T04:21:01.271Z,14.03
2019-01-27T04:24:07.219Z,14.13
2019-01-27T04:27:13.076Z,17.73
2019-01-27T04:30:35.088Z,25.57
2019-01-27T04:33:40.922Z,21.03
2019-01-27T04:36:46.774Z,14.27
2019-01-27T04:39:52.702Z,14.90
2019-01-27T04:42:59.025Z,14.57
2019-01-27T04:46:05.052Z,13.90
2019-01-27T04:49:11.062Z,16.63
2019-01-27T04:52:16.960Z,17.17
2019-01-27T04:55:23.017Z,14.67
2019-01-27T04:58:28.862Z,18.63
2019-01-27T05:01:34.807Z,17.97
2019-01-27T05:04:41.725Z,18.27
2019-01-27T05:07:47.648Z,18.03
2019-01-27T05:10:53.553Z,17.37
2019-01-27T05:13:59.410Z,19.33
2019-01-27T05:17:05.452Z,27.47
2019-01-27T05:20:12.209Z,20.47
2019-01-27T05:23:18.053Z,17.37
2019-01-27T05:26:23.962Z,18.07
2019-01-27T05:29:29.836Z,17.07
2019-01-27T05:32:35.783Z,18.90
2019-01-27T05:35:41.751Z,18.07
2019-01-27T05:38:50.422Z,21.63
2019-01-27T05:41:56.272Z,19.30
2019-01-27T05:45:02.154Z,18.43
2019-01-27T05:48:07.996Z,17.33
2019-01-27T05:51:13.928Z,16.87
2019-01-27T05:54:20.257Z,15.80
2019-01-27T05:57:26.258Z,13.13
2019-01-27T06:00:40.685Z,13.43
2019-01-27T06:03:46.557Z,13.27
2019-01-27T06:06:54.121Z,14.27
2019-01-27T06:10:00.009Z,13.03
2019-01-27T06:13:05.947Z,13.67
2019-01-27T06:16:12.005Z,14.37
2019-01-27T06:19:18.203Z,14.83
2019-01-27T06:22:24.186Z,14.00
2019-01-27T06:25:30.173Z,13.10
2019-01-27T06:28:36.033Z,13.20
2019-01-27T06:31:42.112Z,11.67
2019-01-27T06:34:48.035Z,13.80
2019-01-27T06:37:53.996Z,12.57
2019-01-27T06:41:00.204Z,13.47
2019-01-27T06:44:06.246Z,12.80
2019-01-27T06:47:12.192Z,11.80
2019-01-27T06:50:18.424Z,12.40
2019-01-27T06:53:24.473Z,12.77
2019-01-27T06:56:30.459Z,12.33
2019-01-27T06:59:42.655Z,12.87
2019-01-27T07:02:57.209Z,12.00
2019-01-27T07:06:33.792Z,13.67
2019-01-27T07:09:52.109Z,13.20
2019-01-27T07:13:15.478Z,12.70
2019-01-27T07:16:38.857Z,13.80
2019-01-27T07:20:03.597Z,11.87
2019-01-27T07:23:27.267Z,12.27
2019-01-27T07:26:54.862Z,12.70
2019-01-27T07:30:22.416Z,11.83
2019-01-27T07:33:45.750Z,11.57
2019-01-27T07:37:08.948Z,12.07
2019-01-27T07:40:42.547Z,11.33
2019-01-27T07:44:16.320Z,17.63
2019-01-27T07:47:39.547Z,21.77
2019-01-27T07:51:02.059Z,15.57
2019-01-27T07:54:33.169Z,15.73
2019-01-27T07:58:00.832Z,14.23
2019-01-27T08:01:22.950Z,16.53
2019-01-27T08:04:39.776Z,13.87
2019-01-27T08:07:58.044Z,14.03
2019-01-27T08:11:21.431Z,14.93
2019-01-27T08:14:41.538Z,13.90
2019-01-27T08:18:00.541Z,15.20
2019-01-27T08:21:22.695Z,15.40
2019-01-27T08:24:56.249Z,14.53
2019-01-27T08:28:18.544Z,15.23
2019-01-27T08:31:45.632Z,16.70
2019-01-27T08:35:11.928Z,15.30
2019-01-27T08:38:39.598Z,14.27
2019-01-27T08:42:13.428Z,15.73
2019-01-27T08:45:35.610Z,17.53
2019-01-27T08:48:41.457Z,14.27
2019-01-27T08:51:47.435Z,18.20
2019-01-27T08:54:53.500Z,17.30
2019-01-27T08:57:59.394Z,15.80
2019-01-27T09:01:24.170Z,23.60
2019-01-27T09:04:48.602Z,15.40
2019-01-27T09:08:22.547Z,15.83
2019-01-27T09:11:46.224Z,14.83
2019-01-27T09:15:09.719Z,15.57
2019-01-27T09:18:33.024Z,13.87
2019-01-27T09:21:52.421Z,13.70
2019-01-27T09:25:12.240Z,14.60
2019-01-27T09:28:35.527Z,13.10
2019-01-27T09:31:58.825Z,15.23
2019-01-27T09:35:22.610Z,14.40
2019-01-27T09:39:05.392Z,14.63
2019-01-27T09:42:28.911Z,13.67
2019-01-27T09:46:05.076Z,13.97
2019-01-27T09:49:12.768Z,14.77
2019-01-27T09:52:38.159Z,17.13
2019-01-27T09:56:08.992Z,15.50
2019-01-27T09:59:42.457Z,17.50
2019-01-27T10:03:22.729Z,21.20
2019-01-27T10:06:46.712Z,19.47
2019-01-27T10:10:20.400Z,14.97
2019-01-27T10:13:45.056Z,18.40
2019-01-27T10:17:08.317Z,18.87
2019-01-27T10:20:33.085Z,18.30
2019-01-27T10:24:05.101Z,22.77
2019-01-27T10:27:19.415Z,26.63
2019-01-27T10:30:50.774Z,29.73
2019-01-27T10:34:13.457Z,15.60
2019-01-27T10:37:47.556Z,25.87
2019-01-27T10:41:08.663Z,17.90
2019-01-27T10:44:41.346Z,15.57
2019-01-27T10:48:08.746Z,13.60
2019-01-27T10:51:36.524Z,22.50
2019-01-27T10:55:05.002Z,14.40
2019-01-27T10:58:28.298Z,13.93
2019-01-27T11:01:55.000Z,18.03
2019-01-27T11:05:35.160Z,28.50
2019-01-27T11:08:58.737Z,14.23
2019-01-27T11:12:28.068Z,20.93
2019-01-27T11:15:55.865Z,13.20
2019-01-27T11:19:15.580Z,22.10
2019-01-27T11:22:43.760Z,28.77
2019-01-27T11:26:07.192Z,19.80
2019-01-27T11:29:29.266Z,25.90
2019-01-27T11:32:52.861Z,54.97
2019-01-27T11:36:23.578Z,37.73
2019-01-27T11:39:48.252Z,83.10
2019-01-27T11:43:15.998Z,23.93
2019-01-27T11:46:39.553Z,16.73
2019-01-27T11:49:49.796Z,13.17
2019-01-27T11:53:01.731Z,13.00
2019-01-27T11:56:07.670Z,12.13
2019-01-27T11:59:13.760Z,12.43
2019-01-27T12:02:19.618Z,11.00
2019-01-27T12:05:25.600Z,12.70
2019-01-27T12:08:31.489Z,12.30
2019-01-27T12:11:37.501Z,16.70
2019-01-27T12:14:43.502Z,14.33
2019-01-27T12:17:49.495Z,12.13
2019-01-27T12:20:55.611Z,12.57
2019-01-27T12:24:01.505Z,11.67
2019-01-27T12:27:07.574Z,9.60
2019-01-27T12:30:18.335Z,9.97
2019-01-27T12:33:24.264Z,11.10
2019-01-27T12:36:30.198Z,13.20
2019-01-27T12:39:36.082Z,11.57
2019-01-27T12:42:42.147Z,10.97
2019-01-27T12:45:48.127Z,11.60
2019-01-27T12:48:54.090Z,13.73
2019-01-27T12:51:59.971Z,11.63
2019-01-27T12:55:06.457Z,12.63
2019-01-27T12:58:12.423Z,13.20
2019-01-27T13:01:18.544Z,11.77
2019-01-27T13:04:24.435Z,13.40
2019-01-27T13:07:30.400Z,13.13
2019-01-27T13:10:36.360Z,12.33
2019-01-27T13:13:42.294Z,14.30
2019-01-27T13:16:48.249Z,14.23
2019-01-27T13:19:54.159Z,41.63
2019-01-27T13:23:00.124Z,30.20
2019-01-27T13:26:06.225Z,21.40
2019-01-27T13:29:12.127Z,16.20
2019-01-27T13:32:17.988Z,15.67
2019-01-27T13:35:24.576Z,12.67
2019-01-27T13:38:31.620Z,12.70
2019-01-27T13:41:38.333Z,12.17
2019-01-27T13:44:44.873Z,12.93
2019-01-27T13:47:50.823Z,13.73
2019-01-27T13:50:56.771Z,16.70
2019-01-27T13:54:02.706Z,12.87
2019-01-27T13:57:08.652Z,13.23
2019-01-27T14:00:20.950Z,14.27
2019-01-27T14:03:26.933Z,13.20
2019-01-27T14:06:32.788Z,12.97
2019-01-27T14:09:38.651Z,13.53
2019-01-27T14:12:44.557Z,14.33
2019-01-27T14:15:50.440Z,20.33
2019-01-27T14:18:57.319Z,16.90
2019-01-27T14:22:03.368Z,14.43
2019-01-27T14:25:10.257Z,13.03
2019-01-27T14:28:16.107Z,13.43
2019-01-27T14:31:21.974Z,17.03
2019-01-27T14:34:27.818Z,16.43
2019-01-27T14:37:33.792Z,23.00
2019-01-27T14:40:39.652Z,16.20
2019-01-27T14:43:45.525Z,16.23
2019-01-27T14:46:51.390Z,19.40
2019-01-27T14:49:57.414Z,22.73
2019-01-27T14:53:03.343Z,29.77
2019-01-27T14:56:09.304Z,17.93
2019-01-27T14:59:15.903Z,38.00
2019-01-27T15:02:21.744Z,31.23
2019-01-27T15:05:27.706Z,27.07
2019-01-27T15:08:33.585Z,16.93
2019-01-27T15:11:45.710Z,19.97
2019-01-27T15:14:51.622Z,19.93
2019-01-27T15:18:00.514Z,20.13
2019-01-27T15:21:13.646Z,20.17
2019-01-27T15:24:19.533Z,21.47
2019-01-27T15:27:25.396Z,21.70
2019-01-27T15:30:32.758Z,21.47
2019-01-27T15:33:38.646Z,26.53
2019-01-27T15:36:44.522Z,24.00
2019-01-27T15:39:50.364Z,27.17
2019-01-27T15:42:56.368Z,28.43
2019-01-27T15:46:02.379Z,32.97
2019-01-27T15:49:08.445Z,32.27
2019-01-27T15:52:14.272Z,29.33
2019-01-27T15:55:20.946Z,33.20
2019-01-27T15:58:26.805Z,43.37
2019-01-27T16:01:32.779Z,34.10
2019-01-27T16:04:39.768Z,34.23
2019-01-27T16:07:45.788Z,39.80
2019-01-27T16:10:51.770Z,29.10
2019-01-27T16:13:57.789Z,38.33
2019-01-27T16:17:03.836Z,34.20
2019-01-27T16:20:10.893Z,39.37
2019-01-27T16:23:34.867Z,39.13
2019-01-27T16:26:41.062Z,51.40
2019-01-27T16:30:05.828Z,68.93
2019-01-27T16:33:15.187Z,66.57
2019-01-27T16:36:21.235Z,83.57
2019-01-27T16:39:27.475Z,86.67
2019-01-27T16:42:33.341Z,63.83
2019-01-27T16:45:39.200Z,48.33
2019-01-27T16:48:45.149Z,55.77
2019-01-27T16:51:51.204Z,41.40
2019-01-27T16:54:57.144Z,32.80
2019-01-27T16:58:02.998Z,36.50
2019-01-27T17:01:09.056Z,28.87
2019-01-27T17:04:14.962Z,32.33
2019-01-27T17:07:20.851Z,39.93
2019-01-27T17:10:27.260Z,46.53
2019-01-27T17:13:33.140Z,48.43
2019-01-27T17:16:39.345Z,45.87
2019-01-27T17:19:45.273Z,48.83
2019-01-27T17:22:51.280Z,53.53
2019-01-27T17:25:58.379Z,65.63
2019-01-27T17:29:04.663Z,66.37
2019-01-27T17:32:10.605Z,67.83
2019-01-27T17:35:17.357Z,67.23
2019-01-27T17:38:23.354Z,70.00
2019-01-27T17:41:29.221Z,84.83
2019-01-27T17:44:35.063Z,87.80
2019-01-27T17:47:41.129Z,97.87
2019-01-27T17:50:47.097Z,97.43
2019-01-27T17:54:00.418Z,101.43
2019-01-27T17:57:17.403Z,100.00
2019-01-27T18:00:42.183Z,122.23
2019-01-27T18:04:10.257Z,95.87
2019-01-27T18:07:25.334Z,104.03
2019-01-27T18:10:36.366Z,107.60
2019-01-27T18:14:04.308Z,100.67
2019-01-27T18:17:10.221Z,80.50
2019-01-27T18:20:16.844Z,78.03
2019-01-27T18:23:22.865Z,78.07
2019-01-27T18:26:28.820Z,70.00
2019-01-27T18:29:34.688Z,69.40
2019-01-27T18:32:40.530Z,71.83
2019-01-27T18:35:46.552Z,67.90
2019-01-27T18:38:52.655Z,67.27
2019-01-27T18:41:58.622Z,67.10
2019-01-27T18:45:05.520Z,77.67
2019-01-27T18:48:11.458Z,66.00
2019-01-27T18:51:17.431Z,64.63
2019-01-27T18:54:40.848Z,72.20
2019-01-27T18:58:08.355Z,72.80
2019-01-27T19:01:31.906Z,76.13
2019-01-27T19:04:56.648Z,78.03
2019-01-27T19:08:15.533Z,81.73
2019-01-27T19:11:40.475Z,78.17
2019-01-27T19:14:55.324Z,74.00
2019-01-27T19:18:19.261Z,75.13
2019-01-27T19:21:53.023Z,75.13
2019-01-27T19:25:03.291Z,77.17
2019-01-27T19:28:34.135Z,90.20
2019-01-27T19:32:04.570Z,93.30
2019-01-27T19:35:17.802Z,90.50
2019-01-27T19:38:39.498Z,88.23
2019-01-27T19:42:01.574Z,87.03
2019-01-27T19:45:30.143Z,82.80
2019-01-27T19:49:06.927Z,86.10
2019-01-27T19:52:30.271Z,81.87
2019-01-27T19:56:00.859Z,89.10
2019-01-27T19:59:25.795Z,79.30
2019-01-27T20:02:49.223Z,84.87
2019-01-27T20:06:09.224Z,64.07
2019-01-27T20:09:32.867Z,52.37
2019-01-27T20:13:08.335Z,56.93
2019-01-27T20:16:42.085Z,65.50
2019-01-27T20:20:10.826Z,58.07
2019-01-27T20:23:41.618Z,58.20
2019-01-27T20:27:15.368Z,57.50
2019-01-27T20:30:55.567Z,56.40
2019-01-27T20:34:13.063Z,54.47
2019-01-27T20:37:37.720Z,53.40
2019-01-27T20:41:02.371Z,48.37
2019-01-27T20:44:23.597Z,72.17
2019-01-27T20:47:43.086Z,50.60
2019-01-27T20:51:06.631Z,36.70
2019-01-27T20:54:34.402Z,35.30
2019-01-27T20:57:59.216Z,31.17
2019-01-27T21:01:25.075Z,33.73
2019-01-27T21:04:41.027Z,41.37
2019-01-27T21:07:54.697Z,32.00
2019-01-27T21:11:25.645Z,27.97
2019-01-27T21:14:40.222Z,27.63
2019-01-27T21:17:55.805Z,30.63
2019-01-27T21:21:01.978Z,26.90
2019-01-27T21:24:08.070Z,33.53
2019-01-27T21:27:14.051Z,38.37
2019-01-27T21:30:20.177Z,25.80
2019-01-27T21:33:26.126Z,26.47
2019-01-27T21:36:31.983Z,24.43
2019-01-27T21:39:37.910Z,26.00
2019-01-27T21:42:47.515Z,42.20
2019-01-27T21:45:51.621Z,35.50
2019-01-27T21:48:57.490Z,25.33
2019-01-27T21:52:03.422Z,28.73
2019-01-27T21:55:09.574Z,28.80
2019-01-27T21:58:15.399Z,31.63
2019-01-27T22:01:25.473Z,31.47
2019-01-27T22:04:28.898Z,32.30
2019-01-27T22:07:34.911Z,34.03
2019-01-27T22:10:40.748Z,35.93
2019-01-27T22:13:46.606Z,37.57
2019-01-27T22:16:52.448Z,38.23
2019-01-27T22:19:58.321Z,42.70
2019-01-27T22:23:05.998Z,40.67
2019-01-27T22:26:12.165Z,42.60
2019-01-27T22:29:18.016Z,44.20
2019-01-27T22:32:23.976Z,42.13
2019-01-27T22:35:30.452Z,45.87
2019-01-27T22:38:36.390Z,49.83
2019-01-27T22:41:42.350Z,37.00
2019-01-27T22:44:48.265Z,36.60
2019-01-27T22:47:54.099Z,57.20
2019-01-27T22:51:00.025Z,36.30
2019-01-27T22:54:06.031Z,37.93
2019-01-27T22:57:12.074Z,34.87
2019-01-27T23:00:49.092Z,36.80
2019-01-27T23:03:56.424Z,39.17
2019-01-27T23:07:02.360Z,38.00
2019-01-27T23:10:08.435Z,36.20
2019-01-27T23:13:14.380Z,38.37
2019-01-27T23:16:20.322Z,39.47
2019-01-27T23:19:27.881Z,38.80
2019-01-27T23:22:33.904Z,38.20
2019-01-27T23:25:39.896Z,37.40
2019-01-27T23:28:45.754Z,37.37
2019-01-27T23:31:51.609Z,33.63
2019-01-27T23:34:57.571Z,30.70
2019-01-27T23:38:03.526Z,35.13
2019-01-27T23:41:09.497Z,33.33
2019-01-27T23:44:15.448Z,43.73
2019-01-27T23:47:21.408Z,34.83
2019-01-27T23:50:27.266Z,32.90
2019-01-27T23:53:33.229Z,34.60
2019-01-27T23:56:39.097Z,36.33
2019-01-27T23:59:45.937Z,34.27
